Imperial, California
Current Conditions -  °F | °C
As of 4:53 AM on Friday 31 Oct 2014 (Local Time) from KIPL Reporting Station
Clear Clear  
Wind Chill: 17°   Ceiling: Unl
Heat Index: 17°   Visibility: 10mi
Dew Point:   Wind: 0mph
Humidity: 44%   Direction: NA
Pressure: 29.83"   Gusts: NA
Location:  32.85°N, 115.57°W
Report Text: KIPL 311153Z AUTO 00000KT 10SM CLR 17/04 A2983 RMK AO2 SLP100 T01670044 10211 20161 56004
Loading
Personal Weather Stations






























Interactive Weather Map
Tropical Storm Tracking
New forecast layout! Learn more

10-Day Weather Forecast

Advertisements
Track Severe Weather on mobile